首页
METAR-TAF:

METAR-TAF

机场 :

新奥尔良路易斯阿姆斯特朗国际机场

新奥尔良, 路易斯安那州, 美国

纬度: 29-59-34N, 经度: 090-15-03W, 海拔: 1米

当前天气观测

该预报发布于44分钟前的11:53 UTC
风速4节,风向多变
温度 27°C
湿度 94%
气压 1019 hPa
能見度: 16.1公里
少量云层高于2100英尺
散云层高于10000英尺
多云层高于25000英尺

METAR: KMSY 181153Z VRB04KT 10SM FEW021 SCT100 BKN250 27/26 A3008 RMK AO2 LTG DSNT SE SLP189 OCNL LTGIC DSNT SE CB DSNT SE-SW 60000 70019 T02670256 10272 20256 53004

时间: 07:37 (12:37 UTC)

预报

该预报发布于1小时和12分钟前的11:25 UTC
预报有效从18日的 12点(UTC)到 19日的 18点(UTC)
风速节,风向
能見度: 10公里
散云层高于2500英尺
附近有阵雨
从 18日的 1500点(UTC)
风速5节,风向南转西南
能見度: 10公里
散云层高于2500英尺
多云层高于7000英尺
附近有阵雨
短暂存在
从 18日的 17点(UTC)到 18日的 21点(UTC)
能見度: 4.8公里
多云层高于2500英尺, 积雨云.
雷暴, 雨
从 18日的 2100点(UTC)
风速7节,风向南转西南
能見度: 10公里
散云层高于2500英尺, 积雨云.
多云层高于9000英尺
阵雨, 附近有雷暴
从 19日的 0000点(UTC)
风速6节,风向南转西南
能見度: 10公里
散云层高于3000英尺
从 19日的 1000点(UTC)
风速4节,风向南转西南
能見度: 9.7公里
散云层高于2500英尺, 积雨云.
多云层高于8000英尺
轻雾, 附近有雷暴

TAF: KMSY 181125Z 1812/1918 00000KT P6SM VCSH SCT025 FM181500 21005KT P6SM VCSH SCT025 BKN070 TEMPO 1817/1821 3SM TSRA BKN025CB FM182100 20007KT P6SM SHRA VCTS SCT025CB BKN090 FM190000 20006KT P6SM SCT030 FM191000 21004KT 6SM BR VCTS SCT025CB BKN080

超过4000个机场的气象观测和天气预报(METAR&TAF报告)。

可查询的气象台以黄色和红色小点在地图上表示。

将鼠标移到小点上方,可查看气象台名称。

然后点击查看天气观测和预报。

如需切换地图:点击带黑十字的绿色按钮放大地图;点击带横线的绿色按钮缩小地图;或者点击绿色箭头查看邻近地区的地图。


METAR-TAF: